createdAt,value
2018-07-11T00:01:43.658Z,2.80
2018-07-11T00:04:12.232Z,3.13
2018-07-11T00:06:40.638Z,3.03
2018-07-11T00:09:09.137Z,3.33
2018-07-11T00:11:37.577Z,3.00
2018-07-11T00:14:06.160Z,3.60
2018-07-11T00:16:34.856Z,3.17
2018-07-11T00:19:03.256Z,2.90
2018-07-11T00:21:31.750Z,3.43
2018-07-11T00:24:00.288Z,3.03
2018-07-11T00:26:28.792Z,3.10
2018-07-11T00:28:57.253Z,3.33
2018-07-11T00:31:25.679Z,3.43
2018-07-11T00:33:54.109Z,3.10
2018-07-11T00:36:23.125Z,3.47
2018-07-11T00:38:51.797Z,3.73
2018-07-11T00:41:20.325Z,4.00
2018-07-11T00:43:49.660Z,3.13
2018-07-11T00:46:18.708Z,3.30
2018-07-11T00:48:47.616Z,3.17
2018-07-11T00:51:16.492Z,3.43
2018-07-11T00:53:45.267Z,3.63
2018-07-11T00:56:13.729Z,3.50
2018-07-11T00:58:49.241Z,3.80
2018-07-11T01:01:17.764Z,3.83
2018-07-11T01:03:51.736Z,4.40
2018-07-11T01:06:20.496Z,4.10
2018-07-11T01:08:53.154Z,4.33
2018-07-11T01:11:22.480Z,3.23
2018-07-11T01:13:51.301Z,3.60
2018-07-11T01:16:22.014Z,3.70
2018-07-11T01:18:57.837Z,3.73
2018-07-11T01:21:26.248Z,3.90
2018-07-11T01:23:54.913Z,3.53
2018-07-11T01:26:26.473Z,4.07
2018-07-11T01:28:55.634Z,3.67
2018-07-11T01:31:24.631Z,4.37
2018-07-11T01:33:53.347Z,4.10
2018-07-11T01:36:22.156Z,4.00
2018-07-11T01:38:51.150Z,4.60
2018-07-11T01:41:19.228Z,3.57
2018-07-11T01:43:47.647Z,4.07
2018-07-11T01:46:16.675Z,3.50
2018-07-11T01:48:45.580Z,4.37
2018-07-11T01:51:14.361Z,4.60
2018-07-11T01:53:42.792Z,3.90
2018-07-11T01:56:11.639Z,4.57
2018-07-11T01:58:42.534Z,5.13
2018-07-11T02:01:11.098Z,4.37
2018-07-11T02:03:40.783Z,4.17
2018-07-11T02:06:10.710Z,4.70
2018-07-11T02:08:39.323Z,4.70
2018-07-11T02:11:07.842Z,4.60
2018-07-11T02:13:36.786Z,4.70
2018-07-11T02:16:05.299Z,4.20
2018-07-11T02:18:35.855Z,4.37
2018-07-11T02:21:05.349Z,3.90
2018-07-11T02:23:34.929Z,4.33
2018-07-11T02:26:03.587Z,4.40
2018-07-11T02:28:33.113Z,4.33
2018-07-11T02:31:03.125Z,4.17
2018-07-11T02:33:31.377Z,4.33
2018-07-11T02:36:01.800Z,4.43
2018-07-11T02:38:30.751Z,4.03
2018-07-11T02:40:59.795Z,4.63
2018-07-11T02:43:28.233Z,4.80
2018-07-11T02:45:56.636Z,4.53
2018-07-11T02:48:25.140Z,4.60
2018-07-11T02:50:54.267Z,4.10
2018-07-11T02:53:24.107Z,4.80
2018-07-11T02:55:53.521Z,4.53
2018-07-11T02:58:21.928Z,4.60
2018-07-11T03:00:50.945Z,3.70
2018-07-11T03:03:19.408Z,4.00
2018-07-11T03:05:47.832Z,4.47
2018-07-11T03:08:16.987Z,4.60
2018-07-11T03:10:45.572Z,4.40
2018-07-11T03:13:14.149Z,4.30
2018-07-11T03:15:42.631Z,4.63
2018-07-11T03:18:11.039Z,4.60
2018-07-11T03:20:39.457Z,4.30
2018-07-11T03:23:07.882Z,4.47
2018-07-11T03:25:36.276Z,4.83
2018-07-11T03:28:04.733Z,4.40
2018-07-11T03:30:33.172Z,4.87
2018-07-11T03:33:01.909Z,4.97
2018-07-11T03:35:30.299Z,5.43
2018-07-11T03:37:58.482Z,4.90
2018-07-11T03:40:26.918Z,5.13
2018-07-11T03:42:55.346Z,5.00
2018-07-11T03:45:23.737Z,5.70
2018-07-11T03:47:52.161Z,5.43
2018-07-11T03:50:20.672Z,5.20
2018-07-11T03:52:49.097Z,5.67
2018-07-11T03:55:17.180Z,5.70
2018-07-11T03:57:45.550Z,6.07
2018-07-11T04:00:14.436Z,6.63
2018-07-11T04:02:42.850Z,5.60
2018-07-11T04:05:11.369Z,5.60
2018-07-11T04:07:39.750Z,6.17
2018-07-11T04:10:08.831Z,5.53
2018-07-11T04:12:40.395Z,6.00
2018-07-11T04:15:09.052Z,6.37
2018-07-11T04:17:37.492Z,6.70
2018-07-11T04:20:05.959Z,6.07
2018-07-11T04:22:34.535Z,6.13
2018-07-11T04:25:03.369Z,6.87
2018-07-11T04:27:31.826Z,6.40
2018-07-11T04:30:00.286Z,6.27
2018-07-11T04:32:28.742Z,7.25
2018-07-11T04:34:57.210Z,6.13
2018-07-11T04:37:25.719Z,6.33
2018-07-11T04:39:54.207Z,6.27
2018-07-11T04:42:22.699Z,6.20
2018-07-11T04:44:51.174Z,6.70
2018-07-11T04:47:19.668Z,6.53
2018-07-11T04:49:48.169Z,6.13
2018-07-11T04:52:16.680Z,6.57
2018-07-11T04:54:45.149Z,6.13
2018-07-11T04:57:13.535Z,6.37
2018-07-11T04:59:41.935Z,6.47
2018-07-11T05:02:10.417Z,6.17
2018-07-11T05:04:38.964Z,5.87
2018-07-11T05:07:07.333Z,6.07
2018-07-11T05:09:35.712Z,6.33
2018-07-11T05:12:04.180Z,6.00
2018-07-11T05:14:32.620Z,6.23
2018-07-11T05:17:01.332Z,5.93
2018-07-11T05:19:29.816Z,5.77
2018-07-11T05:21:58.273Z,6.23
2018-07-11T05:24:27.648Z,6.07
2018-07-11T05:26:56.456Z,6.13
2018-07-11T05:29:25.037Z,5.30
2018-07-11T05:31:53.446Z,4.97
2018-07-11T05:34:21.896Z,5.87
2018-07-11T05:36:50.585Z,5.97
2018-07-11T05:39:19.025Z,5.40
2018-07-11T05:41:47.546Z,5.60
2018-07-11T05:44:15.991Z,5.47
2018-07-11T05:46:44.489Z,5.50
2018-07-11T05:49:12.926Z,4.50
2018-07-11T05:51:41.326Z,4.13
2018-07-11T05:54:09.722Z,5.60
2018-07-11T05:56:38.271Z,5.77
2018-07-11T05:59:06.745Z,6.40
2018-07-11T06:01:35.517Z,6.40
2018-07-11T06:04:05.616Z,6.33
2018-07-11T06:06:34.119Z,6.53
2018-07-11T06:09:02.544Z,5.07
2018-07-11T06:11:30.681Z,5.63
2018-07-11T06:13:59.342Z,6.77
2018-07-11T06:16:27.802Z,5.20
2018-07-11T06:18:56.145Z,6.70
2018-07-11T06:21:25.626Z,6.20
2018-07-11T06:23:54.623Z,5.70
2018-07-11T06:26:23.125Z,7.47
2018-07-11T06:28:51.817Z,6.20
2018-07-11T06:31:20.978Z,5.70
2018-07-11T06:33:49.393Z,5.23
2018-07-11T06:36:17.720Z,5.97
2018-07-11T06:38:46.090Z,5.73
2018-07-11T06:41:14.676Z,6.83
2018-07-11T06:43:43.397Z,6.83
2018-07-11T06:46:11.824Z,7.13
2018-07-11T06:48:40.311Z,5.40
2018-07-11T06:51:08.681Z,5.13
2018-07-11T06:53:37.057Z,5.50
2018-07-11T06:56:05.581Z,5.47
2018-07-11T06:58:35.925Z,5.23
2018-07-11T07:01:04.052Z,6.20
2018-07-11T07:03:32.480Z,5.70
2018-07-11T07:06:00.907Z,5.73
2018-07-11T07:08:29.341Z,6.00
2018-07-11T07:10:58.107Z,6.27
2018-07-11T07:13:26.978Z,5.20
2018-07-11T07:15:55.617Z,5.20
2018-07-11T07:18:24.103Z,4.73
2018-07-11T07:20:52.998Z,4.60
2018-07-11T07:23:21.790Z,5.83
2018-07-11T07:25:50.270Z,5.27
2018-07-11T07:28:19.156Z,4.63
2018-07-11T07:30:47.687Z,3.97
2018-07-11T07:33:16.115Z,4.10
2018-07-11T07:35:44.957Z,3.63
2018-07-11T07:38:13.733Z,4.43
2018-07-11T07:40:42.499Z,4.20
2018-07-11T07:43:11.105Z,3.70
2018-07-11T07:45:40.873Z,3.47
2018-07-11T07:48:10.927Z,3.30
2018-07-11T07:50:39.641Z,3.43
2018-07-11T07:53:08.204Z,3.60
2018-07-11T07:55:36.961Z,3.67
2018-07-11T07:58:05.752Z,2.83
2018-07-11T08:00:34.384Z,3.03
2018-07-11T08:03:03.197Z,3.50
2018-07-11T08:05:31.669Z,3.07
2018-07-11T08:08:00.049Z,3.27
2018-07-11T08:10:28.430Z,3.00
2018-07-11T08:12:56.762Z,2.20
2018-07-11T08:15:25.120Z,2.43
2018-07-11T08:17:53.195Z,2.30
2018-07-11T08:20:21.583Z,2.03
2018-07-11T08:23:31.093Z,2.00
2018-07-11T08:26:10.832Z,2.33
2018-07-11T08:31:56.291Z,2.83
2018-07-11T08:34:35.814Z,2.30
2018-07-11T08:38:38.508Z,2.73
2018-07-11T08:43:24.995Z,2.30
2018-07-11T08:46:04.729Z,2.13
2018-07-11T08:49:19.611Z,1.70
2018-07-11T08:52:00.601Z,1.80
2018-07-11T08:57:17.797Z,1.73
2018-07-11T08:59:57.329Z,1.80
2018-07-11T09:02:45.965Z,2.00
2018-07-11T09:05:25.305Z,1.63
2018-07-11T09:08:10.745Z,1.37
2018-07-11T09:12:57.369Z,1.73
2018-07-11T09:15:37.186Z,1.87
2018-07-11T09:18:16.753Z,1.97
2018-07-11T09:23:14.569Z,1.93
2018-07-11T09:25:45.086Z,2.47
2018-07-11T09:28:13.471Z,2.00
2018-07-11T09:30:42.247Z,2.33
2018-07-11T09:33:12.867Z,2.37
2018-07-11T09:35:42.052Z,2.53
2018-07-11T09:38:12.039Z,2.50
2018-07-11T09:40:42.074Z,2.47
2018-07-11T09:43:13.266Z,2.20
2018-07-11T09:45:41.900Z,1.83
2018-07-11T09:48:10.530Z,1.83
2018-07-11T09:50:38.908Z,2.47
2018-07-11T09:53:07.479Z,2.00
2018-07-11T09:55:35.971Z,2.17
2018-07-11T09:58:05.051Z,2.30
2018-07-11T10:00:39.702Z,2.47
2018-07-11T10:03:08.364Z,2.00
2018-07-11T10:05:37.096Z,2.20
2018-07-11T10:08:07.911Z,2.90
2018-07-11T10:10:36.403Z,2.33
2018-07-11T10:13:05.457Z,2.30
2018-07-11T10:15:34.031Z,2.33
2018-07-11T10:18:03.375Z,2.30
2018-07-11T10:20:32.629Z,2.30
2018-07-11T10:23:01.289Z,2.30
2018-07-11T10:25:29.751Z,2.93
2018-07-11T10:28:09.698Z,2.50
2018-07-11T10:30:38.230Z,2.47
2018-07-11T10:33:06.754Z,2.83
2018-07-11T10:35:35.191Z,3.17
2018-07-11T10:38:03.651Z,2.40
2018-07-11T10:40:32.070Z,2.93
2018-07-11T10:43:01.012Z,2.57
2018-07-11T10:45:29.965Z,2.30
2018-07-11T10:47:58.440Z,2.60
2018-07-11T10:50:27.141Z,2.70
2018-07-11T10:52:55.614Z,2.93
2018-07-11T10:55:24.472Z,3.10
2018-07-11T10:57:53.954Z,3.13
2018-07-11T11:00:36.661Z,3.10
2018-07-11T11:02:57.796Z,3.27
2018-07-11T11:05:26.185Z,2.47
2018-07-11T11:07:54.712Z,3.00
2018-07-11T11:10:23.513Z,3.43
2018-07-11T11:12:52.316Z,3.10
2018-07-11T11:15:21.415Z,2.67
2018-07-11T11:17:49.824Z,2.53
2018-07-11T11:20:18.266Z,2.57
2018-07-11T11:22:46.948Z,3.20
2018-07-11T11:25:15.476Z,2.90
2018-07-11T11:27:44.034Z,2.73
2018-07-11T11:30:12.472Z,2.67
2018-07-11T11:32:41.265Z,2.50
2018-07-11T11:35:09.689Z,3.27
2018-07-11T11:37:38.409Z,3.17
2018-07-11T11:40:06.917Z,3.00
2018-07-11T11:42:35.639Z,3.47
2018-07-11T11:45:03.950Z,3.57
2018-07-11T11:47:39.121Z,3.80
2018-07-11T11:50:07.764Z,3.67
2018-07-11T11:52:36.232Z,3.10
2018-07-11T11:55:05.080Z,3.20
2018-07-11T12:00:02.802Z,3.60
2018-07-11T12:02:31.281Z,3.30
2018-07-11T12:05:00.106Z,3.30
2018-07-11T12:07:28.543Z,3.67
2018-07-11T12:09:56.974Z,3.83
2018-07-11T12:12:25.362Z,3.27
2018-07-11T12:14:53.815Z,3.00
2018-07-11T12:17:22.252Z,3.03
2018-07-11T12:19:50.754Z,3.07
2018-07-11T12:22:21.328Z,3.17
2018-07-11T12:24:50.287Z,3.07
2018-07-11T12:27:19.237Z,2.43
2018-07-11T12:29:48.403Z,2.93
2018-07-11T12:32:16.802Z,4.20
2018-07-11T12:34:45.238Z,3.30
2018-07-11T12:37:14.154Z,3.10
2018-07-11T12:39:42.595Z,4.00
2018-07-11T12:42:12.892Z,3.73
2018-07-11T12:44:41.382Z,3.50
2018-07-11T12:47:15.596Z,3.40
2018-07-11T12:49:44.728Z,3.53
2018-07-11T12:52:14.064Z,3.80
2018-07-11T12:54:43.385Z,3.33
2018-07-11T12:57:12.147Z,2.83
2018-07-11T12:59:40.633Z,3.90
2018-07-11T13:02:09.046Z,3.30
2018-07-11T13:04:37.688Z,3.60
2018-07-11T13:07:06.599Z,3.67
2018-07-11T13:09:35.751Z,3.70
2018-07-11T13:12:04.156Z,3.13
2018-07-11T13:14:32.498Z,3.00
2018-07-11T13:17:00.901Z,3.50
2018-07-11T13:19:29.276Z,3.80
2018-07-11T13:21:57.663Z,3.93
2018-07-11T13:24:26.037Z,3.70
2018-07-11T13:26:54.513Z,3.10
2018-07-11T13:29:22.944Z,3.40
2018-07-11T13:31:51.414Z,4.33
2018-07-11T13:34:20.217Z,4.00
2018-07-11T13:36:48.659Z,3.60
2018-07-11T13:39:20.857Z,4.10
2018-07-11T13:41:50.030Z,4.40
2018-07-11T13:44:18.924Z,3.43
2018-07-11T13:46:47.638Z,3.97
2018-07-11T13:49:16.288Z,3.73
2018-07-11T13:51:44.729Z,3.77
2018-07-11T13:54:13.170Z,3.20
2018-07-11T13:56:41.592Z,3.17
2018-07-11T13:59:10.039Z,3.00
2018-07-11T14:01:38.714Z,3.40
2018-07-11T14:04:07.168Z,3.47
2018-07-11T14:06:36.056Z,4.03
2018-07-11T14:09:04.819Z,3.37
2018-07-11T14:11:33.224Z,3.73
2018-07-11T14:14:01.783Z,3.43
2018-07-11T14:16:30.236Z,3.90
2018-07-11T14:18:58.668Z,3.90
2018-07-11T14:21:27.075Z,3.40
2018-07-11T14:23:55.826Z,3.27
2018-07-11T14:26:24.324Z,2.90
2018-07-11T14:28:54.642Z,3.20
2018-07-11T14:31:29.965Z,3.27
2018-07-11T14:34:01.112Z,3.47
2018-07-11T14:36:29.486Z,3.73
2018-07-11T14:38:57.999Z,3.40
2018-07-11T14:41:26.573Z,4.00
2018-07-11T14:43:55.914Z,3.60
2018-07-11T14:46:25.138Z,3.80
2018-07-11T14:48:53.754Z,4.10
2018-07-11T14:51:22.313Z,4.30
2018-07-11T14:53:51.549Z,4.17
2018-07-11T14:56:20.225Z,3.97
2018-07-11T14:58:49.155Z,4.10
2018-07-11T15:01:17.828Z,3.73
2018-07-11T15:03:46.680Z,4.17
2018-07-11T15:06:15.503Z,3.93
2018-07-11T15:08:44.370Z,3.40
2018-07-11T15:11:12.708Z,3.10
2018-07-11T15:13:41.201Z,4.07
2018-07-11T15:16:09.599Z,3.30
2018-07-11T15:18:38.372Z,3.37
2018-07-11T15:21:07.291Z,3.60
2018-07-11T15:23:35.666Z,3.53
2018-07-11T15:26:04.082Z,3.70
2018-07-11T15:28:32.732Z,2.90
2018-07-11T15:31:01.514Z,3.93
2018-07-11T15:33:29.882Z,4.03
2018-07-11T15:35:58.353Z,3.93
2018-07-11T15:38:26.940Z,3.87
2018-07-11T15:40:55.365Z,3.90
2018-07-11T15:43:25.224Z,4.30
2018-07-11T15:45:54.773Z,4.30
2018-07-11T15:48:23.000Z,4.23
2018-07-11T15:50:52.880Z,4.13
2018-07-11T15:53:22.715Z,3.87
2018-07-11T15:55:52.006Z,4.47
2018-07-11T15:58:21.946Z,4.40
2018-07-11T16:00:50.361Z,5.00
2018-07-11T16:03:19.777Z,4.73
2018-07-11T16:05:48.848Z,4.90
2018-07-11T16:08:18.573Z,5.70
2018-07-11T16:10:50.417Z,5.03
2018-07-11T16:13:18.874Z,4.50
2018-07-11T16:15:47.363Z,4.33
2018-07-11T16:18:15.766Z,4.70
2018-07-11T16:20:44.200Z,4.10
2018-07-11T16:23:12.722Z,4.70
2018-07-11T16:25:42.362Z,4.83
2018-07-11T16:28:11.698Z,4.57
2018-07-11T16:30:40.141Z,4.30
2018-07-11T16:33:08.657Z,4.50
2018-07-11T16:35:37.754Z,4.67
2018-07-11T16:38:06.245Z,4.60
2018-07-11T16:40:35.025Z,4.27
2018-07-11T16:43:03.681Z,3.97
2018-07-11T16:45:32.142Z,4.20
2018-07-11T16:48:01.030Z,3.80
2018-07-11T16:50:29.560Z,4.13
2018-07-11T16:52:58.314Z,3.93
2018-07-11T16:55:27.331Z,4.10
2018-07-11T16:57:56.511Z,3.90
2018-07-11T17:00:25.621Z,4.30
2018-07-11T17:02:59.700Z,3.87
2018-07-11T17:05:31.463Z,4.07
2018-07-11T17:08:00.465Z,4.07
2018-07-11T17:10:30.048Z,4.10
2018-07-11T17:13:08.861Z,3.77
2018-07-11T17:15:37.682Z,4.43
2018-07-11T17:18:07.125Z,3.37
2018-07-11T17:20:35.560Z,4.07
2018-07-11T17:23:07.092Z,3.80
2018-07-11T17:25:41.569Z,5.57
2018-07-11T17:28:09.663Z,4.87
2018-07-11T17:30:40.155Z,4.20
2018-07-11T17:33:09.665Z,4.90
2018-07-11T17:35:51.165Z,4.50
2018-07-11T17:38:23.477Z,4.03
2018-07-11T17:40:52.251Z,4.40
2018-07-11T17:43:22.003Z,5.03
2018-07-11T17:45:51.436Z,4.87
2018-07-11T17:48:40.557Z,4.83
2018-07-11T17:51:21.089Z,5.47
2018-07-11T17:53:55.769Z,5.27
2018-07-11T17:56:33.270Z,5.40
2018-07-11T17:59:02.196Z,4.83
2018-07-11T18:01:37.459Z,5.43
2018-07-11T18:04:09.959Z,5.63
2018-07-11T18:07:01.634Z,5.37
2018-07-11T18:09:58.112Z,5.30
2018-07-11T18:12:33.093Z,5.80
2018-07-11T18:15:13.971Z,5.50
2018-07-11T18:17:55.814Z,5.70
2018-07-11T18:20:33.341Z,5.37
2018-07-11T18:23:11.258Z,5.57
2018-07-11T18:25:48.277Z,5.57
2018-07-11T18:29:26.603Z,5.80
2018-07-11T18:32:34.525Z,5.33
2018-07-11T18:35:11.786Z,6.20
2018-07-11T18:38:01.295Z,6.30
2018-07-11T18:40:49.702Z,5.83
2018-07-11T18:43:56.269Z,6.17
2018-07-11T18:46:39.971Z,5.23
2018-07-11T18:50:22.460Z,6.40
2018-07-11T18:52:54.333Z,5.87
2018-07-11T18:55:36.685Z,5.73
2018-07-11T18:58:18.026Z,5.63
2018-07-11T19:01:58.343Z,5.00
2018-07-11T19:04:43.924Z,5.00
2018-07-11T19:07:22.665Z,5.40
2018-07-11T19:09:52.383Z,5.37
2018-07-11T19:12:31.646Z,5.53
2018-07-11T19:15:11.677Z,5.07
2018-07-11T19:17:48.205Z,5.40
2018-07-11T19:20:22.731Z,5.60
2018-07-11T19:23:02.421Z,5.47
2018-07-11T19:25:40.902Z,5.47
2018-07-11T19:28:50.300Z,6.00
2018-07-11T19:31:30.470Z,5.67
2018-07-11T19:34:08.861Z,5.37
2018-07-11T19:38:13.522Z,5.67
2018-07-11T19:40:48.046Z,5.43
2018-07-11T19:45:43.536Z,5.30
2018-07-11T19:49:19.728Z,5.27
2018-07-11T19:51:59.615Z,6.37
2018-07-11T19:54:50.956Z,4.73
2018-07-11T19:57:19.426Z,6.10
2018-07-11T19:59:47.862Z,5.83
2018-07-11T20:02:16.313Z,5.43
2018-07-11T20:04:44.753Z,5.57
2018-07-11T20:07:13.803Z,5.53
2018-07-11T20:09:42.297Z,5.30
2018-07-11T20:12:11.147Z,5.40
2018-07-11T20:14:39.572Z,5.50
2018-07-11T20:17:07.986Z,5.70
2018-07-11T20:19:36.455Z,5.93
2018-07-11T20:22:04.882Z,5.90
2018-07-11T20:24:33.321Z,5.67
2018-07-11T20:27:01.750Z,6.43
2018-07-11T20:29:30.226Z,5.30
2018-07-11T20:31:58.866Z,5.63
2018-07-11T20:34:27.531Z,5.23
2018-07-11T20:36:55.928Z,5.90
2018-07-11T20:39:24.435Z,6.77
2018-07-11T20:41:53.550Z,6.63
2018-07-11T20:44:21.980Z,6.37
2018-07-11T20:46:50.500Z,6.47
2018-07-11T20:49:24.358Z,6.50
2018-07-11T20:51:53.097Z,6.17
2018-07-11T20:54:21.528Z,6.33
2018-07-11T20:56:49.946Z,7.77
2018-07-11T20:59:29.482Z,6.37
2018-07-11T21:02:09.242Z,6.43
2018-07-11T21:04:46.866Z,7.13
2018-07-11T21:07:37.547Z,7.37
2018-07-11T21:10:17.423Z,6.40
2018-07-11T21:12:54.252Z,6.60
2018-07-11T21:15:37.344Z,7.40
2018-07-11T21:19:22.469Z,7.53
2018-07-11T21:21:51.028Z,6.67
2018-07-11T21:24:19.456Z,7.53
2018-07-11T21:26:48.053Z,7.37
2018-07-11T21:29:16.734Z,7.47
2018-07-11T21:31:45.425Z,8.10
2018-07-11T21:34:13.886Z,8.47
2018-07-11T21:36:42.575Z,7.80
2018-07-11T21:39:11.370Z,7.90
2018-07-11T21:41:39.838Z,7.67
2018-07-11T21:44:08.266Z,8.20
2018-07-11T21:46:36.726Z,8.70
2018-07-11T21:49:05.150Z,8.33
2018-07-11T21:51:33.550Z,8.93
2018-07-11T21:54:01.999Z,7.33
2018-07-11T21:56:30.439Z,9.00
2018-07-11T21:58:58.821Z,9.17
2018-07-11T22:01:27.259Z,9.60
2018-07-11T22:03:55.708Z,8.53
2018-07-11T22:06:24.470Z,9.50
2018-07-11T22:08:53.274Z,9.80
2018-07-11T22:11:21.953Z,9.70
2018-07-11T22:13:50.322Z,10.10
2018-07-11T22:16:18.771Z,10.93
2018-07-11T22:18:47.240Z,10.27
2018-07-11T22:21:15.232Z,9.30
2018-07-11T22:23:42.536Z,10.17
2018-07-11T22:26:09.867Z,11.23
2018-07-11T22:28:37.245Z,10.87
2018-07-11T22:31:04.814Z,9.70
2018-07-11T22:33:32.372Z,11.30
2018-07-11T22:35:59.722Z,10.97
2018-07-11T22:38:27.045Z,11.27
2018-07-11T22:40:54.345Z,11.60
2018-07-11T22:43:21.744Z,11.57
2018-07-11T22:45:49.110Z,12.00
2018-07-11T22:48:16.456Z,12.20
2018-07-11T22:50:43.777Z,11.03
2018-07-11T22:53:11.143Z,10.83
2018-07-11T22:55:38.949Z,11.07
2018-07-11T22:58:06.267Z,11.53
2018-07-11T23:00:36.813Z,10.67
2018-07-11T23:03:04.167Z,12.47
2018-07-11T23:05:31.754Z,10.67
2018-07-11T23:07:59.084Z,12.27
2018-07-11T23:10:26.672Z,12.53
2018-07-11T23:12:54.212Z,11.03
2018-07-11T23:15:21.530Z,11.50
2018-07-11T23:17:48.853Z,11.87
2018-07-11T23:20:16.424Z,12.23
2018-07-11T23:22:43.721Z,12.03
2018-07-11T23:25:11.046Z,13.93
2018-07-11T23:27:38.390Z,12.00
2018-07-11T23:30:06.073Z,12.43
2018-07-11T23:32:33.389Z,13.87
2018-07-11T23:35:00.733Z,13.83
2018-07-11T23:37:28.348Z,14.27
2018-07-11T23:39:55.661Z,15.83
2018-07-11T23:42:22.964Z,14.30
2018-07-11T23:44:50.270Z,15.73
2018-07-11T23:47:17.591Z,14.10
2018-07-11T23:49:44.889Z,15.47
2018-07-11T23:52:12.176Z,15.00
2018-07-11T23:54:39.593Z,16.20
2018-07-11T23:57:06.937Z,16.13
2018-07-11T23:59:34.258Z,15.73
